createdAt,value
2024-03-03T00:00:38.829Z,24.58
2024-03-03T00:01:38.813Z,24.58
2024-03-03T00:02:38.849Z,24.56
2024-03-03T00:03:38.887Z,24.59
2024-03-03T00:04:38.812Z,24.59
2024-03-03T00:05:38.816Z,24.54
2024-03-03T00:55:45.106Z,25.12
2024-03-03T00:56:39.948Z,24.90
2024-03-03T00:57:39.110Z,24.82
2024-03-03T00:58:39.092Z,24.79
2024-03-03T00:59:39.083Z,24.73
2024-03-03T01:00:39.112Z,24.69
2024-03-03T01:01:39.116Z,24.69
2024-03-03T01:02:39.137Z,24.67
2024-03-03T01:03:39.118Z,24.69
2024-03-03T01:04:39.100Z,24.67
2024-03-03T01:05:39.097Z,24.63
2024-03-03T01:06:39.142Z,24.63
2024-03-03T01:07:42.678Z,24.61
2024-03-03T01:08:39.100Z,24.64
2024-03-03T01:09:39.150Z,24.62
2024-03-03T01:10:39.132Z,24.63
2024-03-03T01:11:39.218Z,24.62
2024-03-03T01:12:39.164Z,24.62
2024-03-03T01:13:39.125Z,24.63
2024-03-03T01:14:39.129Z,24.61
2024-03-03T01:15:39.160Z,24.61
2024-03-03T01:16:39.145Z,24.61
2024-03-03T01:17:39.130Z,24.60
2024-03-03T01:18:39.141Z,24.60
2024-03-03T01:19:39.175Z,24.58
2024-03-03T01:20:39.130Z,24.57
2024-03-03T01:21:39.151Z,24.60
2024-03-03T01:22:39.467Z,24.54
2024-03-03T01:23:39.133Z,24.58
2024-03-03T01:24:39.173Z,24.58
2024-03-03T01:25:39.154Z,24.58
2024-03-03T01:26:39.217Z,24.56
2024-03-03T01:27:39.242Z,24.59
2024-03-03T01:28:39.266Z,24.59
2024-03-03T01:29:39.233Z,24.62
2024-03-03T01:30:39.323Z,24.58
2024-03-03T01:31:39.296Z,24.57
2024-03-03T01:32:39.329Z,24.57
2024-03-03T01:33:39.384Z,24.59
2024-03-03T01:34:39.474Z,24.59
2024-03-03T01:35:39.370Z,24.57
2024-03-03T01:36:39.419Z,24.58
2024-03-03T01:37:39.427Z,24.58
2024-03-03T01:38:39.449Z,24.56
2024-03-03T01:39:39.587Z,24.58
2024-03-03T01:40:39.480Z,24.58
2024-03-03T01:41:39.507Z,24.60
2024-03-03T01:42:39.561Z,24.60
2024-03-03T01:43:39.583Z,24.59
2024-03-03T01:44:39.603Z,24.58
2024-03-03T01:45:39.612Z,24.58
2024-03-03T01:46:39.626Z,24.63
2024-03-03T01:47:39.699Z,24.60
2024-03-03T01:48:39.694Z,24.63
2024-03-03T01:49:39.696Z,24.61
2024-03-03T01:50:39.707Z,24.61
2024-03-03T01:51:39.753Z,24.64
2024-03-03T01:52:39.749Z,24.63
2024-03-03T01:53:39.787Z,24.61
2024-03-03T01:54:39.838Z,24.59
2024-03-03T01:55:39.827Z,24.58
2024-03-03T01:56:39.845Z,24.60
2024-03-03T01:57:39.866Z,24.59
2024-03-03T01:58:39.889Z,24.65
2024-03-03T01:59:39.932Z,24.66
2024-03-03T02:00:39.983Z,24.68
2024-03-03T02:01:40.068Z,24.70
2024-03-03T02:02:39.970Z,24.65
2024-03-03T02:03:40.009Z,24.68
2024-03-03T02:04:40.004Z,24.66
2024-03-03T02:05:40.012Z,24.66
2024-03-03T02:06:40.065Z,24.68
2024-03-03T02:07:40.048Z,24.69
2024-03-03T02:08:40.058Z,24.70
2024-03-03T02:09:40.104Z,24.71
2024-03-03T02:10:40.105Z,24.71
2024-03-03T02:11:40.100Z,24.69
2024-03-03T02:12:40.142Z,24.69
2024-03-03T02:13:40.136Z,24.69
2024-03-03T02:14:40.156Z,24.71
2024-03-03T02:15:40.239Z,24.71
2024-03-03T02:16:40.201Z,24.72
2024-03-03T02:17:40.220Z,24.73
2024-03-03T02:18:40.270Z,24.73
2024-03-03T02:19:40.373Z,24.74
2024-03-03T02:20:40.269Z,24.73
2024-03-03T02:21:40.300Z,24.75
2024-03-03T02:22:40.306Z,24.74
2024-03-03T02:23:40.332Z,24.78
2024-03-03T02:24:40.385Z,24.75
2024-03-03T02:25:40.373Z,24.78
2024-03-03T02:26:40.384Z,24.77
2024-03-03T02:27:40.433Z,24.76
2024-03-03T02:28:40.413Z,24.78
2024-03-03T02:29:40.983Z,24.80
2024-03-03T02:30:40.491Z,24.81
2024-03-03T02:31:41.034Z,24.81
2024-03-03T02:32:40.510Z,24.82
2024-03-03T02:33:40.544Z,24.82
2024-03-03T02:34:40.521Z,24.85
2024-03-03T02:35:41.480Z,24.84
2024-03-03T02:36:40.589Z,24.82
2024-03-03T02:37:40.622Z,24.84
2024-03-03T02:38:40.683Z,24.83
2024-03-03T02:39:40.660Z,24.80
2024-03-03T02:40:40.657Z,24.82
2024-03-03T02:41:40.664Z,24.83
2024-03-03T02:42:40.711Z,24.80
2024-03-03T02:43:40.729Z,24.81
2024-03-03T02:44:40.745Z,24.84
2024-03-03T02:45:40.807Z,24.84
2024-03-03T02:46:40.791Z,24.88
2024-03-03T02:47:40.861Z,24.88
2024-03-03T02:48:40.877Z,24.90
2024-03-03T02:49:40.863Z,24.88
2024-03-03T02:50:40.894Z,24.90
2024-03-03T02:51:41.000Z,24.89
2024-03-03T02:52:40.947Z,24.88
2024-03-03T02:53:40.982Z,24.86
2024-03-03T02:54:41.041Z,24.87
2024-03-03T02:55:41.043Z,24.89
2024-03-03T02:56:41.064Z,24.89
2024-03-03T02:57:43.428Z,24.91
2024-03-03T02:58:41.993Z,24.90
2024-03-03T02:59:41.073Z,24.91
2024-03-03T03:00:41.637Z,24.90
2024-03-03T03:01:41.181Z,24.91
2024-03-03T03:02:41.087Z,24.92
2024-03-03T03:03:41.129Z,24.90
2024-03-03T03:04:41.093Z,24.92
2024-03-03T03:05:41.096Z,24.90
2024-03-03T03:06:41.097Z,24.92
2024-03-03T03:07:41.098Z,24.93
2024-03-03T03:08:42.006Z,24.89
2024-03-03T03:09:41.118Z,24.86
2024-03-03T03:10:41.101Z,24.86
2024-03-03T03:11:41.115Z,24.81
2024-03-03T03:12:41.142Z,24.83
2024-03-03T03:13:41.623Z,24.81
2024-03-03T03:14:41.108Z,24.80
2024-03-03T03:15:41.513Z,24.84
2024-03-03T03:16:41.122Z,24.82
2024-03-03T03:17:41.136Z,24.83
2024-03-03T03:18:41.153Z,24.80
2024-03-03T03:19:41.155Z,24.81
2024-03-03T03:20:41.440Z,24.83
2024-03-03T03:21:41.188Z,24.84
2024-03-03T03:22:41.998Z,24.81
2024-03-03T03:23:41.215Z,24.80
2024-03-03T03:24:41.257Z,24.84
2024-03-03T03:25:41.274Z,24.82
2024-03-03T03:26:41.299Z,24.83
2024-03-03T03:27:41.341Z,24.82
2024-03-03T03:28:41.345Z,24.82
2024-03-03T03:29:41.374Z,24.80
2024-03-03T03:30:41.395Z,24.75
2024-03-03T03:31:42.000Z,24.76
2024-03-03T03:32:41.470Z,24.74
2024-03-03T03:33:41.491Z,24.76
2024-03-03T03:34:41.483Z,24.76
2024-03-03T03:35:41.575Z,24.74
2024-03-03T03:36:41.567Z,24.74
2024-03-03T03:37:42.027Z,24.72
2024-03-03T03:38:41.577Z,24.76
2024-03-03T03:39:41.652Z,24.75
2024-03-03T03:40:41.653Z,24.77
2024-03-03T03:41:41.658Z,24.76
2024-03-03T03:42:41.733Z,24.78
2024-03-03T03:43:41.711Z,24.77
2024-03-03T03:44:41.741Z,24.77
2024-03-03T03:45:41.786Z,24.78
2024-03-03T03:46:41.799Z,24.77
2024-03-03T03:47:41.936Z,24.77
2024-03-03T03:48:42.532Z,24.76
2024-03-03T03:49:41.877Z,24.78
2024-03-03T03:50:41.902Z,24.79
2024-03-03T03:51:42.023Z,24.78
2024-03-03T03:52:41.951Z,24.81
2024-03-03T03:53:41.972Z,24.81
2024-03-03T03:54:42.041Z,24.80
2024-03-03T03:55:42.036Z,24.79
2024-03-03T03:56:42.072Z,24.79
2024-03-03T03:57:42.121Z,24.80
2024-03-03T03:58:42.117Z,24.80
2024-03-03T03:59:42.141Z,24.81
2024-03-03T04:00:42.262Z,24.81
2024-03-03T04:01:43.068Z,24.79
2024-03-03T04:02:42.211Z,24.78
2024-03-03T04:03:43.058Z,24.79
2024-03-03T04:04:42.293Z,24.80
2024-03-03T04:05:42.298Z,24.82
2024-03-03T04:06:43.048Z,24.84
2024-03-03T04:07:42.366Z,24.83
2024-03-03T04:08:42.367Z,24.85
2024-03-03T04:09:42.419Z,24.87
2024-03-03T04:10:42.490Z,24.83
2024-03-03T04:11:42.445Z,24.83
2024-03-03T04:12:42.570Z,24.85
2024-03-03T04:13:42.506Z,24.86
2024-03-03T04:14:42.517Z,24.86
2024-03-03T04:15:42.585Z,24.84
2024-03-03T04:16:42.587Z,24.86
2024-03-03T04:17:42.630Z,24.83
2024-03-03T04:18:42.699Z,24.85
2024-03-03T04:19:42.675Z,24.87
2024-03-03T04:20:43.528Z,24.89
2024-03-03T04:21:42.758Z,24.91
2024-03-03T04:22:43.035Z,24.91
2024-03-03T04:23:42.798Z,24.92
2024-03-03T04:24:42.791Z,24.92
2024-03-03T04:25:42.822Z,24.93
2024-03-03T04:26:42.855Z,24.92
2024-03-03T04:27:42.903Z,24.92
2024-03-03T04:28:42.911Z,24.93
2024-03-03T04:29:43.525Z,24.95
2024-03-03T04:30:42.986Z,24.94
2024-03-03T04:31:43.531Z,24.94
2024-03-03T04:32:43.035Z,24.94
2024-03-03T04:33:43.082Z,24.93
2024-03-03T04:34:43.075Z,24.93
2024-03-03T04:35:43.102Z,24.95
2024-03-03T04:36:43.133Z,24.94
2024-03-03T04:37:43.156Z,24.95
2024-03-03T04:38:43.267Z,24.97
2024-03-03T04:39:44.073Z,24.98
2024-03-03T04:40:43.260Z,24.98
2024-03-03T04:41:43.291Z,24.98
2024-03-03T04:42:43.377Z,25.00
2024-03-03T04:43:43.375Z,25.00
2024-03-03T04:44:43.381Z,25.00
2024-03-03T04:45:43.485Z,25.01
2024-03-03T04:46:50.921Z,25.04
2024-03-03T04:47:51.818Z,25.02
2024-03-03T04:48:51.818Z,25.03
2024-03-03T04:49:51.794Z,25.03
2024-03-03T04:50:51.790Z,25.03
2024-03-03T04:51:51.828Z,25.05
2024-03-03T04:52:51.801Z,25.05
2024-03-03T04:53:51.827Z,25.05
2024-03-03T04:54:51.841Z,25.08
2024-03-03T04:55:51.805Z,25.04
2024-03-03T04:56:51.870Z,25.07
2024-03-03T04:57:51.822Z,25.07
2024-03-03T04:58:51.807Z,25.08
2024-03-03T04:59:51.832Z,25.08
2024-03-03T05:00:51.857Z,25.09
2024-03-03T05:01:51.936Z,25.09
2024-03-03T05:02:51.809Z,25.08
2024-03-03T05:03:51.852Z,25.10
2024-03-03T05:04:51.818Z,25.09
2024-03-03T05:05:51.813Z,25.07
2024-03-03T05:06:52.007Z,25.08
2024-03-03T05:07:51.826Z,25.08
2024-03-03T05:08:51.827Z,25.08
2024-03-03T05:09:51.867Z,25.09
2024-03-03T05:10:51.902Z,25.08
2024-03-03T05:11:51.832Z,25.10
2024-03-03T05:12:51.866Z,25.10
2024-03-03T05:13:51.837Z,25.07
2024-03-03T05:14:51.830Z,25.08
2024-03-03T05:15:51.879Z,25.07
2024-03-03T05:16:51.863Z,25.08
2024-03-03T05:17:54.202Z,25.08
2024-03-03T05:18:51.902Z,25.07
2024-03-03T05:19:51.842Z,25.08
2024-03-03T05:20:51.850Z,25.07
2024-03-03T05:21:51.847Z,25.08
2024-03-03T05:22:51.851Z,25.07
2024-03-03T05:23:51.874Z,25.05
2024-03-03T05:24:51.896Z,25.07
2024-03-03T05:25:51.857Z,25.06
2024-03-03T05:26:51.936Z,25.06
2024-03-03T05:27:51.973Z,25.07
2024-03-03T05:28:51.887Z,25.06
2024-03-03T05:29:51.850Z,25.05
2024-03-03T05:30:51.878Z,25.06
2024-03-03T05:31:51.862Z,25.03
2024-03-03T05:32:51.870Z,25.04
2024-03-03T05:33:51.895Z,25.07
2024-03-03T05:34:51.862Z,25.09
2024-03-03T05:35:51.876Z,25.07
2024-03-03T05:36:52.006Z,25.07
2024-03-03T05:37:51.866Z,25.07
2024-03-03T05:38:51.865Z,25.06
2024-03-03T05:39:51.924Z,25.08
2024-03-03T05:40:51.878Z,25.08
2024-03-03T05:41:51.884Z,25.08
2024-03-03T05:42:51.913Z,25.09
2024-03-03T05:43:51.882Z,25.09
2024-03-03T05:44:51.864Z,25.10
2024-03-03T05:45:51.897Z,25.10
2024-03-03T05:46:51.905Z,25.10
2024-03-03T05:47:51.926Z,25.09
2024-03-03T05:48:51.889Z,25.11
2024-03-03T05:49:51.870Z,25.07
2024-03-03T05:50:51.883Z,25.07
2024-03-03T05:51:51.899Z,25.07
2024-03-03T05:52:51.879Z,25.07
2024-03-03T05:53:51.888Z,25.03
2024-03-03T05:54:51.900Z,25.05
2024-03-03T05:55:51.891Z,25.08
2024-03-03T05:56:51.912Z,25.07
2024-03-03T05:57:51.925Z,25.10
2024-03-03T05:58:51.917Z,25.09
2024-03-03T05:59:51.891Z,25.10
2024-03-03T06:00:52.108Z,25.09
2024-03-03T06:01:52.004Z,25.09
2024-03-03T06:02:51.903Z,25.09
2024-03-03T06:03:51.950Z,25.10
2024-03-03T06:04:51.936Z,25.09
2024-03-03T06:05:51.916Z,25.09
2024-03-03T06:06:51.971Z,25.09
2024-03-03T06:07:51.907Z,25.11
2024-03-03T06:08:51.901Z,25.07
2024-03-03T06:09:51.958Z,25.09
2024-03-03T06:10:51.953Z,25.09
2024-03-03T06:11:51.932Z,25.07
2024-03-03T06:12:51.939Z,25.06
2024-03-03T06:13:51.900Z,25.07
2024-03-03T06:14:51.945Z,25.05
2024-03-03T06:15:51.983Z,25.02
2024-03-03T06:16:53.949Z,25.04
2024-03-03T06:17:51.949Z,25.06
2024-03-03T06:18:51.921Z,25.03
2024-03-03T06:19:51.913Z,25.02
2024-03-03T06:20:51.917Z,25.04
2024-03-03T06:21:52.274Z,25.03
2024-03-03T06:22:51.932Z,25.03
2024-03-03T06:23:51.931Z,25.03
2024-03-03T06:24:51.939Z,25.02
2024-03-03T06:25:51.943Z,25.01
2024-03-03T06:26:52.041Z,25.02
2024-03-03T06:27:51.964Z,25.01
2024-03-03T06:28:51.937Z,24.99
2024-03-03T06:29:51.946Z,25.00
2024-03-03T06:30:51.998Z,25.02
2024-03-03T06:31:51.943Z,25.01
2024-03-03T06:32:52.026Z,24.96
2024-03-03T06:33:52.014Z,24.96
2024-03-03T06:34:51.970Z,24.96
2024-03-03T06:35:51.947Z,24.97
2024-03-03T06:36:52.039Z,24.98
2024-03-03T06:37:52.015Z,24.97
2024-03-03T06:38:51.953Z,24.96
2024-03-03T06:39:52.025Z,24.98
2024-03-03T06:40:51.959Z,24.95
2024-03-03T06:41:51.963Z,24.89
2024-03-03T06:42:52.011Z,24.84
2024-03-03T06:43:51.968Z,24.85
2024-03-03T06:44:51.984Z,24.86
2024-03-03T06:45:51.985Z,24.87
2024-03-03T06:46:52.057Z,24.87
2024-03-03T06:47:51.999Z,24.89
2024-03-03T06:48:51.975Z,24.86
2024-03-03T06:49:51.973Z,24.88
2024-03-03T06:50:51.979Z,24.86
2024-03-03T06:51:52.019Z,24.88
2024-03-03T06:52:52.010Z,24.89
2024-03-03T06:53:51.979Z,24.87
2024-03-03T06:54:52.026Z,24.82
2024-03-03T06:55:51.988Z,24.82
2024-03-03T06:56:52.023Z,24.81
2024-03-03T06:57:52.052Z,24.77
2024-03-03T06:58:51.989Z,24.78
2024-03-03T06:59:51.993Z,24.77
2024-03-03T07:00:52.063Z,24.70
2024-03-03T07:01:52.171Z,24.65
2024-03-03T07:02:52.035Z,24.72
2024-03-03T07:03:52.029Z,24.76
2024-03-03T07:04:52.014Z,24.75
2024-03-03T07:05:52.016Z,24.76
2024-03-03T07:06:52.041Z,24.74
2024-03-03T07:07:52.021Z,24.71
2024-03-03T07:08:52.019Z,24.70
2024-03-03T07:09:52.050Z,24.73
2024-03-03T07:10:52.036Z,24.70
2024-03-03T07:11:52.027Z,24.71
2024-03-03T07:12:52.066Z,24.65
2024-03-03T07:13:52.033Z,24.67
2024-03-03T07:14:52.026Z,24.70
2024-03-03T07:15:52.083Z,24.64
2024-03-03T07:16:52.216Z,24.60
2024-03-03T07:17:52.084Z,24.63
2024-03-03T07:18:52.071Z,24.53
2024-03-03T07:19:52.039Z,24.59
2024-03-03T07:20:52.039Z,24.53
2024-03-03T07:21:52.074Z,24.54
2024-03-03T07:22:52.041Z,24.42
2024-03-03T07:23:52.045Z,24.40
2024-03-03T07:24:52.776Z,24.40
2024-03-03T07:25:52.049Z,24.37
2024-03-03T07:26:52.161Z,24.32
2024-03-03T07:27:52.071Z,24.32
2024-03-03T07:28:52.054Z,24.36
2024-03-03T07:29:52.056Z,24.39
2024-03-03T07:30:52.097Z,24.39
2024-03-03T07:31:52.062Z,24.40
2024-03-03T07:32:52.079Z,24.37
2024-03-03T07:33:52.165Z,24.36
2024-03-03T07:34:52.091Z,24.39
2024-03-03T07:35:52.075Z,24.36
2024-03-03T07:36:52.190Z,24.39
2024-03-03T07:37:52.073Z,24.35
2024-03-03T07:38:52.102Z,24.35
2024-03-03T07:39:52.110Z,24.34
2024-03-03T07:40:52.122Z,24.35
2024-03-03T07:41:52.134Z,24.39
2024-03-03T07:42:52.213Z,24.45
2024-03-03T07:43:52.170Z,24.46
2024-03-03T07:44:52.195Z,24.42
2024-03-03T07:45:52.206Z,24.39
2024-03-03T07:46:52.234Z,24.32
2024-03-03T07:47:52.230Z,24.32
2024-03-03T07:48:52.267Z,24.30
2024-03-03T07:49:52.274Z,24.25
2024-03-03T07:50:52.320Z,24.23
2024-03-03T07:51:52.370Z,24.22
2024-03-03T07:52:52.337Z,24.23
2024-03-03T07:53:52.325Z,24.17
2024-03-03T07:54:52.371Z,24.06
2024-03-03T07:55:52.341Z,24.05
2024-03-03T07:56:52.376Z,23.90
2024-03-03T07:57:52.394Z,23.84
2024-03-03T07:58:52.392Z,23.82
2024-03-03T07:59:52.403Z,23.76
2024-03-03T08:00:52.504Z,23.84
2024-03-03T08:01:52.622Z,23.79
2024-03-03T08:02:52.438Z,23.79
2024-03-03T08:03:52.469Z,23.90
2024-03-03T08:04:52.532Z,23.93
2024-03-03T08:05:52.472Z,23.95
2024-03-03T08:06:52.550Z,23.95
2024-03-03T08:07:52.501Z,23.96
2024-03-03T08:08:53.470Z,23.84
2024-03-03T08:09:52.549Z,23.74
2024-03-03T08:10:52.517Z,23.62
2024-03-03T08:11:52.603Z,23.63
2024-03-03T08:12:52.585Z,23.67
2024-03-03T08:13:52.535Z,23.60
2024-03-03T08:14:52.557Z,23.55
2024-03-03T08:15:52.631Z,23.57
2024-03-03T08:16:52.552Z,23.70
2024-03-03T08:17:52.621Z,23.74
2024-03-03T08:18:52.668Z,23.73
2024-03-03T08:19:52.590Z,23.76
2024-03-03T08:20:52.572Z,23.74
2024-03-03T08:21:52.726Z,23.73
2024-03-03T08:22:52.642Z,23.73
2024-03-03T08:23:52.582Z,23.74
2024-03-03T08:24:52.645Z,23.67
2024-03-03T08:25:52.608Z,23.67
2024-03-03T08:26:52.610Z,23.66
2024-03-03T08:27:52.865Z,23.69
2024-03-03T08:28:52.651Z,23.70
2024-03-03T08:29:52.666Z,23.71
2024-03-03T08:30:52.743Z,23.68
2024-03-03T08:31:52.711Z,23.63
2024-03-03T08:32:52.754Z,23.64
2024-03-03T08:33:52.765Z,23.61
2024-03-03T08:34:52.776Z,23.61
2024-03-03T08:35:52.711Z,23.57
2024-03-03T08:36:52.764Z,23.57
2024-03-03T08:37:52.745Z,23.58
2024-03-03T08:38:52.804Z,23.61
2024-03-03T08:39:52.821Z,23.56
2024-03-03T08:40:52.818Z,23.54
2024-03-03T08:41:52.847Z,23.54
2024-03-03T08:42:52.929Z,23.53
2024-03-03T08:43:52.897Z,23.47
2024-03-03T08:44:52.917Z,23.49
2024-03-03T08:45:53.016Z,23.45
2024-03-03T08:46:52.971Z,23.41
2024-03-03T08:47:53.036Z,23.42
2024-03-03T08:48:53.125Z,23.40
2024-03-03T08:49:53.990Z,23.42
2024-03-03T08:50:56.185Z,23.44
2024-03-03T08:51:53.206Z,23.46
2024-03-03T08:52:53.173Z,23.45
2024-03-03T08:53:53.121Z,23.43
2024-03-03T08:54:53.178Z,23.39
2024-03-03T08:55:53.137Z,23.41
2024-03-03T08:56:53.129Z,23.43
2024-03-03T08:57:53.154Z,23.43
2024-03-03T08:58:53.126Z,23.42
2024-03-03T08:59:53.148Z,23.36
2024-03-03T09:00:53.213Z,23.37
2024-03-03T09:01:53.280Z,23.34
2024-03-03T09:02:53.139Z,23.36
2024-03-03T09:03:53.170Z,23.33
2024-03-03T09:04:53.141Z,23.31
2024-03-03T09:05:53.159Z,23.31
2024-03-03T09:06:53.178Z,23.31
2024-03-03T09:07:53.151Z,23.31
2024-03-03T09:08:53.153Z,23.26
2024-03-03T09:09:53.246Z,23.26
2024-03-03T09:10:53.374Z,23.25
2024-03-03T09:11:53.358Z,23.26
2024-03-03T09:12:53.436Z,23.23
2024-03-03T09:13:53.494Z,23.24
2024-03-03T09:14:53.556Z,23.23
2024-03-03T09:15:53.669Z,23.23
2024-03-03T09:16:53.703Z,23.22
2024-03-03T09:17:53.820Z,23.23
2024-03-03T09:18:53.866Z,23.24
2024-03-03T09:19:53.927Z,23.23
2024-03-03T09:20:54.018Z,23.18
2024-03-03T09:21:54.061Z,23.15
2024-03-03T09:22:54.124Z,23.16
2024-03-03T09:23:54.245Z,23.15
2024-03-03T09:24:54.299Z,23.15
2024-03-03T09:25:54.335Z,23.12
2024-03-03T09:26:54.435Z,23.10
2024-03-03T09:27:54.532Z,23.13
2024-03-03T09:28:54.578Z,23.14
2024-03-03T09:29:54.678Z,23.11
2024-03-03T09:30:54.739Z,23.08
2024-03-03T09:31:54.754Z,23.10
2024-03-03T09:32:54.935Z,23.10
2024-03-03T09:33:54.920Z,23.08
2024-03-03T09:34:54.967Z,23.06
2024-03-03T09:35:55.037Z,23.03
2024-03-03T09:36:55.129Z,23.02
2024-03-03T09:37:55.173Z,23.03
2024-03-03T09:38:55.250Z,23.08
2024-03-03T09:39:57.847Z,23.05
2024-03-03T09:40:55.325Z,23.06
2024-03-03T09:41:55.333Z,23.04
2024-03-03T09:42:55.366Z,23.05
2024-03-03T09:43:55.345Z,23.06
2024-03-03T09:44:55.339Z,23.04
2024-03-03T09:45:55.344Z,23.06
2024-03-03T09:46:55.366Z,23.04
2024-03-03T09:47:55.386Z,23.02
2024-03-03T09:48:55.355Z,23.00
2024-03-03T09:49:55.347Z,22.99
2024-03-03T09:50:55.348Z,23.00
2024-03-03T09:51:55.367Z,22.98
2024-03-03T09:52:55.350Z,23.02
2024-03-03T09:53:55.365Z,23.03
2024-03-03T09:54:55.423Z,23.06
2024-03-03T09:55:55.364Z,23.02
2024-03-03T09:56:55.362Z,23.03
2024-03-03T09:57:55.411Z,23.00
2024-03-03T09:58:55.403Z,23.03
2024-03-03T09:59:55.389Z,23.02
2024-03-03T10:00:55.492Z,23.04
2024-03-03T10:01:55.466Z,23.00
2024-03-03T10:02:55.375Z,23.01
2024-03-03T10:03:55.377Z,23.01
2024-03-03T10:04:55.453Z,23.04
2024-03-03T10:05:55.504Z,23.03
2024-03-03T10:06:55.619Z,23.01
2024-03-03T10:07:55.640Z,23.05
2024-03-03T10:08:55.708Z,23.01
2024-03-03T10:09:55.814Z,23.00
2024-03-03T10:10:56.288Z,22.92
2024-03-03T10:11:56.523Z,22.95
2024-03-03T10:12:56.044Z,22.91
2024-03-03T10:13:56.047Z,22.94
2024-03-03T10:14:58.180Z,22.81
2024-03-03T10:15:56.120Z,22.87
2024-03-03T10:16:56.118Z,22.76
2024-03-03T10:17:56.166Z,22.75
2024-03-03T10:18:56.138Z,22.76
2024-03-03T10:19:56.131Z,22.82
2024-03-03T10:20:56.128Z,22.77
2024-03-03T10:21:56.150Z,22.71
2024-03-03T10:22:56.141Z,22.72
2024-03-03T10:23:56.140Z,22.57
2024-03-03T10:24:56.188Z,22.55
2024-03-03T10:25:56.158Z,22.42
2024-03-03T10:26:56.289Z,22.37
2024-03-03T10:27:56.181Z,22.45
2024-03-03T10:28:56.147Z,22.58
2024-03-03T10:29:56.145Z,22.55
2024-03-03T10:30:56.191Z,22.55
2024-03-03T10:31:56.149Z,22.53
2024-03-03T10:32:56.178Z,22.54
2024-03-03T10:33:56.529Z,22.51
2024-03-03T10:34:56.162Z,22.48
2024-03-03T10:35:56.155Z,22.49
2024-03-03T10:36:56.188Z,22.49
2024-03-03T10:37:56.173Z,22.45
2024-03-03T10:38:56.256Z,22.42
2024-03-03T10:39:56.324Z,22.42
2024-03-03T10:40:56.378Z,22.39
2024-03-03T10:41:56.449Z,22.43
2024-03-03T10:42:56.552Z,22.44
2024-03-03T10:43:56.579Z,22.43
2024-03-03T10:44:56.648Z,22.42
2024-03-03T10:45:56.726Z,22.38
2024-03-03T10:46:56.799Z,22.37
2024-03-03T10:47:56.893Z,22.34
2024-03-03T10:48:56.935Z,22.28
2024-03-03T10:49:56.976Z,22.21
2024-03-03T10:50:57.040Z,22.24
2024-03-03T10:51:57.129Z,22.23
2024-03-03T10:52:57.171Z,22.23
2024-03-03T10:53:57.236Z,22.21
2024-03-03T10:54:57.325Z,22.20
2024-03-03T10:55:57.385Z,22.17
2024-03-03T10:56:57.419Z,22.18
2024-03-03T10:57:57.534Z,22.19
2024-03-03T10:58:57.552Z,22.19
2024-03-03T10:59:57.607Z,22.19
2024-03-03T11:00:57.713Z,22.15
2024-03-03T11:01:57.859Z,22.16
2024-03-03T11:02:57.835Z,22.17
2024-03-03T11:03:57.894Z,22.14
2024-03-03T11:04:57.966Z,22.17
2024-03-03T11:05:57.966Z,22.11
2024-03-03T11:06:58.083Z,22.09
2024-03-03T11:07:58.091Z,22.10
2024-03-03T11:08:58.167Z,22.07
2024-03-03T11:09:58.255Z,22.09
2024-03-03T11:10:58.277Z,22.11
2024-03-03T11:11:58.325Z,22.05
2024-03-03T11:12:58.455Z,22.04
2024-03-03T11:13:58.437Z,22.07
2024-03-03T11:14:58.499Z,22.10
2024-03-03T11:15:58.564Z,22.12
2024-03-03T11:16:58.617Z,22.12
2024-03-03T11:17:58.751Z,22.07
2024-03-03T11:18:58.818Z,22.04
2024-03-03T11:19:58.793Z,22.06
2024-03-03T11:20:58.849Z,22.07
2024-03-03T11:21:58.961Z,22.07
2024-03-03T11:22:58.968Z,22.09
2024-03-03T11:23:59.023Z,22.07
2024-03-03T11:24:59.090Z,22.04
2024-03-03T11:25:59.134Z,22.00
2024-03-03T11:26:59.194Z,22.02
2024-03-03T11:27:59.276Z,22.02
2024-03-03T11:28:59.306Z,22.02
2024-03-03T11:29:59.374Z,22.01
2024-03-03T11:30:59.443Z,22.03
2024-03-03T11:31:59.488Z,22.04
2024-03-03T11:32:59.557Z,22.01
2024-03-03T11:33:59.627Z,21.99
2024-03-03T11:34:59.712Z,21.94
2024-03-03T11:35:59.705Z,21.98
2024-03-03T11:36:59.830Z,21.94
2024-03-03T11:37:59.823Z,21.92
2024-03-03T11:38:59.871Z,21.93
2024-03-03T11:39:59.962Z,21.94
2024-03-03T11:40:59.983Z,21.89
2024-03-03T11:42:00.100Z,21.88
2024-03-03T11:43:00.100Z,21.90
2024-03-03T11:44:00.152Z,21.91
2024-03-03T11:45:00.253Z,21.92
2024-03-03T11:46:02.110Z,21.90
2024-03-03T11:47:00.259Z,21.89
2024-03-03T11:48:00.430Z,21.90
2024-03-03T11:49:00.323Z,21.87
2024-03-03T11:50:00.263Z,21.84
2024-03-03T11:51:00.281Z,21.82
2024-03-03T11:52:00.289Z,21.80
2024-03-03T11:53:00.263Z,21.76
2024-03-03T11:54:00.268Z,21.76
2024-03-03T11:55:00.327Z,21.79
2024-03-03T11:56:00.270Z,21.75
2024-03-03T11:57:00.263Z,21.70
2024-03-03T11:58:00.421Z,21.72
2024-03-03T11:59:00.272Z,21.70
2024-03-03T12:00:00.324Z,21.66
2024-03-03T12:01:00.373Z,21.68
2024-03-03T12:02:00.405Z,21.67
2024-03-03T12:03:00.283Z,21.61
2024-03-03T12:04:00.286Z,21.56
2024-03-03T12:05:00.283Z,21.51
2024-03-03T12:06:00.280Z,21.52
2024-03-03T12:07:00.328Z,21.49
2024-03-03T12:08:00.289Z,21.47
2024-03-03T12:09:00.288Z,21.53
2024-03-03T12:10:00.432Z,21.51
2024-03-03T12:11:00.322Z,21.48
2024-03-03T12:12:00.296Z,21.49
2024-03-03T12:13:00.484Z,21.49
2024-03-03T12:14:00.413Z,21.47
2024-03-03T12:15:00.485Z,21.45
2024-03-03T12:16:00.550Z,21.42
2024-03-03T12:17:00.588Z,21.40
2024-03-03T12:18:00.711Z,21.37
2024-03-03T12:19:00.675Z,21.37
2024-03-03T12:20:00.731Z,21.36
2024-03-03T12:21:00.778Z,21.40
2024-03-03T12:22:00.895Z,21.40
2024-03-03T12:23:00.915Z,21.40
2024-03-03T12:24:00.953Z,21.41
2024-03-03T12:25:01.028Z,21.42
2024-03-03T12:26:04.211Z,21.40
2024-03-03T12:27:01.046Z,21.39
2024-03-03T12:28:01.176Z,21.36
2024-03-03T12:29:01.054Z,21.34
2024-03-03T12:30:01.115Z,21.35
2024-03-03T12:31:01.081Z,21.38
2024-03-03T12:32:03.446Z,21.39
2024-03-03T12:33:01.095Z,21.40
2024-03-03T12:34:01.091Z,21.41
2024-03-03T12:35:01.077Z,21.41
2024-03-03T12:36:01.058Z,21.49
2024-03-03T12:37:01.151Z,21.48
2024-03-03T12:38:01.065Z,21.45
2024-03-03T12:39:01.103Z,21.43
2024-03-03T12:40:01.126Z,21.45
2024-03-03T12:41:01.075Z,21.46
2024-03-03T12:42:01.088Z,21.45
2024-03-03T12:43:01.099Z,21.48
2024-03-03T12:44:01.077Z,21.45
2024-03-03T12:45:01.068Z,21.45
2024-03-03T12:46:01.083Z,21.43
2024-03-03T12:47:01.077Z,21.38
2024-03-03T12:48:01.100Z,21.38
2024-03-03T12:49:01.097Z,21.33
2024-03-03T12:50:01.090Z,21.29
2024-03-03T12:51:01.083Z,21.31
2024-03-03T12:52:01.101Z,21.25
2024-03-03T12:53:01.080Z,21.19
2024-03-03T12:54:01.097Z,21.20
2024-03-03T12:55:01.129Z,21.20
2024-03-03T12:56:01.085Z,21.17
2024-03-03T12:57:01.093Z,21.21
2024-03-03T12:58:01.136Z,21.17
2024-03-03T12:59:01.098Z,21.14
2024-03-03T13:00:01.108Z,21.11
2024-03-03T13:01:01.177Z,21.09
2024-03-03T13:02:01.173Z,21.11
2024-03-03T13:03:01.119Z,21.09
2024-03-03T13:04:01.179Z,21.07
2024-03-03T13:05:01.202Z,21.05
2024-03-03T13:06:01.255Z,21.00
2024-03-03T13:07:01.336Z,21.00
2024-03-03T13:08:01.609Z,20.99
2024-03-03T13:09:01.411Z,20.98
2024-03-03T13:10:01.520Z,20.96
2024-03-03T13:11:01.560Z,20.97
2024-03-03T13:12:01.552Z,20.96
2024-03-03T13:13:01.638Z,20.96
2024-03-03T13:14:01.666Z,20.94
2024-03-03T13:15:01.717Z,20.88
2024-03-03T13:16:01.838Z,20.82
2024-03-03T13:17:03.537Z,20.82
2024-03-03T13:18:01.867Z,20.81
2024-03-03T13:19:02.123Z,20.79
2024-03-03T13:20:01.871Z,20.79
2024-03-03T13:21:01.822Z,20.71
2024-03-03T13:22:01.890Z,20.72
2024-03-03T13:23:01.837Z,20.71
2024-03-03T13:24:01.841Z,20.73
2024-03-03T13:25:01.860Z,20.74
2024-03-03T13:26:01.826Z,20.72
2024-03-03T13:27:01.858Z,20.67
2024-03-03T13:28:01.880Z,20.65
2024-03-03T13:29:01.856Z,20.66
2024-03-03T13:30:01.846Z,20.66
2024-03-03T13:31:01.929Z,20.69
2024-03-03T13:32:01.873Z,20.67
2024-03-03T13:33:01.891Z,20.64
2024-03-03T13:34:01.868Z,20.65
2024-03-03T13:35:01.961Z,20.61
2024-03-03T13:36:01.844Z,20.60
2024-03-03T13:37:01.901Z,20.61
2024-03-03T13:38:01.866Z,20.64
2024-03-03T13:39:01.856Z,20.65
2024-03-03T13:40:02.014Z,20.66
2024-03-03T13:41:01.877Z,20.71
2024-03-03T13:42:01.943Z,20.70